Time;durP1;ratioP1;P1;durP2;ratioP2;P2;SDS_P1;SDS_P2;PMS_P1;PMS_P2;Temp;Humidity;BMP_temperature;BMP_pressure;BME280_temperature;BME280_humidity;BME280_pressure;Samples;Min_cycle;Max_cycle;Signal;HPM_P1;HPM_P2
2021/08/28 00:00:00;;;;;;;1.37;1.27;;;;;;;14.31;63.75;99833.00;4488626;31;35124;-86
2021/08/28 00:02:30;;;;;;;1.33;1.05;;;;;;;14.38;63.45;99838.78;4481594;31;33115;-85
2021/08/28 00:04:58;;;;;;;2.05;1.37;;;;;;;14.44;63.19;99834.94;4479259;31;34108;-85
2021/08/28 00:07:26;;;;;;;1.33;1.17;;;;;;;14.43;63.20;99830.56;4472893;31;34575;-85
2021/08/28 00:09:53;;;;;;;1.98;1.37;;;;;;;14.35;63.55;99831.88;4478738;31;33800;-85
2021/08/28 00:12:21;;;;;;;2.90;1.75;;;;;;;14.41;63.40;99841.28;4476712;32;33456;-86
2021/08/28 00:14:49;;;;;;;2.00;1.65;;;;;;;14.43;63.68;99835.88;4494510;31;33039;-85
2021/08/28 00:17:17;;;;;;;2.67;1.87;;;;;;;14.44;63.55;99838.47;4478213;31;34028;-85
2021/08/28 00:19:45;;;;;;;2.20;1.50;;;;;;;14.49;63.46;99847.03;4478230;31;33176;-85
2021/08/28 00:22:13;;;;;;;1.75;1.55;;;;;;;14.40;63.52;99841.37;4495621;31;33801;-85
2021/08/28 00:24:41;;;;;;;1.85;1.60;;;;;;;14.41;63.55;99849.25;4482943;31;32664;-85
2021/08/28 00:27:09;;;;;;;2.58;2.03;;;;;;;14.27;64.18;99841.25;4479645;31;33879;-85
2021/08/28 00:29:36;;;;;;;2.72;2.42;;;;;;;14.48;63.53;99847.09;4481000;31;34934;-85
2021/08/28 00:32:04;;;;;;;2.90;1.98;;;;;;;14.35;63.55;99852.28;4475346;31;32751;-85
2021/08/28 00:34:35;;;;;;;2.37;1.87;;;;;;;14.42;63.03;99856.28;4494364;31;33606;-85
2021/08/28 00:37:23;;;;;;;4.22;1.95;;;;;;;14.35;62.92;99852.28;4491679;31;34634;-85
2021/08/28 00:40:23;;;;;;;4.37;2.08;;;;;;;14.40;62.71;99852.88;4491764;31;33851;-85
2021/08/28 00:43:00;;;;;;;2.22;1.83;;;;;;;14.43;62.65;99858.00;4475267;31;33510;-85
2021/08/28 00:45:44;;;;;;;2.00;1.62;;;;;;;14.51;62.54;99855.75;4482649;31;33008;-85
2021/08/28 00:48:14;;;;;;;2.33;1.75;;;;;;;14.41;62.52;99859.88;4477098;31;34876;-85
2021/08/28 00:50:52;;;;;;;3.15;1.95;;;;;;;14.20;63.60;99850.53;4492154;31;35080;-84
2021/08/28 00:53:34;;;;;;;2.40;1.77;;;;;;;14.11;63.58;99851.03;4464652;31;33392;-85
2021/08/28 00:56:02;;;;;;;2.22;1.30;;;;;;;14.26;63.18;99844.84;4489540;31;33478;-84
2021/08/28 00:58:30;;;;;;;1.75;1.30;;;;;;;14.38;62.63;99846.75;4494244;31;34569;-84
2021/08/28 01:01:02;;;;;;;2.15;1.70;;;;;;;14.27;63.07;99846.53;4479361;31;33768;-85
2021/08/28 01:03:33;;;;;;;3.12;1.80;;;;;;;14.28;62.88;99842.94;4492958;31;33598;-84
2021/08/28 01:06:41;;;;;;;3.47;1.77;;;;;;;14.22;62.98;99846.81;4493398;31;34698;-85
2021/08/28 01:09:16;;;;;;;1.70;1.55;;;;;;;14.24;62.76;99839.63;4457947;31;32645;-85
2021/08/28 01:12:38;;;;;;;1.73;1.58;;;;;;;14.06;63.16;99838.88;4469390;31;33553;-86
2021/08/28 01:15:09;;;;;;;1.62;1.10;;;;;;;13.73;64.81;99840.81;4418201;32;32940;-85
2021/08/28 01:17:43;;;;;;;3.47;1.58;;;;;;;13.75;64.60;99841.56;4420288;32;32871;-85
2021/08/28 01:20:19;;;;;;;2.30;1.92;;;;;;;13.98;63.64;99843.78;4449483;31;33788;-86
2021/08/28 01:22:52;;;;;;;4.53;1.67;;;;;;;14.14;62.95;99841.06;4480874;31;33399;-86
2021/08/28 01:25:22;;;;;;;3.78;1.87;;;;;;;14.25;62.20;99843.13;4468060;32;33050;-85
2021/08/28 01:28:03;;;;;;;2.78;1.50;;;;;;;13.82;63.60;99841.13;4473728;31;33009;-85
2021/08/28 01:30:33;;;;;;;3.20;1.65;;;;;;;13.79;63.86;99838.66;4487107;31;34016;-85
2021/08/28 01:33:02;;;;;;;1.87;1.30;;;;;;;13.84;63.60;99843.69;4493266;31;34031;-85
2021/08/28 01:35:30;;;;;;;1.92;1.80;;;;;;;13.80;63.80;99845.66;4477894;31;33417;-84
2021/08/28 01:38:00;;;;;;;2.85;2.10;;;;;;;13.95;62.91;99846.59;4478146;31;32144;-84
2021/08/28 01:40:29;;;;;;;3.95;1.73;;;;;;;13.68;63.76;99843.72;4491754;31;33852;-83
2021/08/28 01:42:57;;;;;;;2.67;1.20;;;;;;;13.51;64.58;99852.59;4490481;31;33991;-83
2021/08/28 01:45:26;;;;;;;2.33;1.92;;;;;;;13.69;63.89;99844.56;4491874;31;33813;-84
2021/08/28 01:47:55;;;;;;;1.58;1.25;;;;;;;13.57;64.20;99851.38;4479123;31;33462;-85
2021/08/28 01:50:24;;;;;;;1.85;1.67;;;;;;;13.50;64.67;99842.94;4478015;31;33823;-85
2021/08/28 01:52:52;;;;;;;3.55;1.73;;;;;;;13.61;64.53;99836.16;4480048;31;34848;-85
2021/08/28 01:55:22;;;;;;;2.28;1.75;;;;;;;13.56;64.30;99839.94;4480246;31;33906;-85
2021/08/28 01:57:51;;;;;;;1.77;1.60;;;;;;;13.70;63.63;99835.66;4479208;31;33448;-85
2021/08/28 02:00:24;;;;;;;1.62;1.52;;;;;;;13.37;64.68;99833.91;4476646;31;34650;-85
2021/08/28 02:02:52;;;;;;;1.70;1.40;;;;;;;13.39;64.60;99840.00;4482881;31;36002;-85
2021/08/28 02:05:21;;;;;;;2.87;1.85;;;;;;;13.42;64.25;99837.19;4488334;31;33749;-87
2021/08/28 02:07:55;;;;;;;1.95;1.65;;;;;;;13.16;65.10;99835.06;4483128;31;32386;-87
2021/08/28 02:10:46;;;;;;;3.45;1.50;;;;;;;13.40;64.03;99831.13;4494518;31;33571;-87
2021/08/28 02:13:21;;;;;;;1.50;1.40;;;;;;;13.48;63.68;99835.97;4493045;31;33674;-87
2021/08/28 02:15:51;;;;;;;2.12;1.70;;;;;;;13.40;64.00;99839.06;4475446;31;34445;-87
2021/08/28 02:18:34;;;;;;;2.70;1.40;;;;;;;13.43;64.08;99838.88;4492568;31;34201;-87
2021/08/28 02:21:04;;;;;;;2.20;1.58;;;;;;;13.45;63.92;99831.72;4490685;31;33160;-87
2021/08/28 02:23:35;;;;;;;1.95;1.50;;;;;;;13.41;64.11;99838.12;4494323;31;34112;-87
2021/08/28 02:26:10;;;;;;;4.80;1.62;;;;;;;13.51;63.90;99826.06;4476393;31;34318;-87
2021/08/28 02:28:45;;;;;;;3.83;1.73;;;;;;;13.33;64.26;99827.06;4479985;31;33313;-87
2021/08/28 02:31:15;;;;;;;1.98;1.52;;;;;;;13.34;64.24;99818.19;4473402;31;34549;-85
2021/08/28 02:33:44;;;;;;;1.65;1.40;;;;;;;13.34;64.25;99820.84;4489947;31;33267;-86
2021/08/28 02:36:13;;;;;;;2.22;1.60;;;;;;;13.36;64.09;99821.59;4467027;31;33221;-85
2021/08/28 02:38:43;;;;;;;2.30;1.48;;;;;;;13.32;64.32;99820.06;4461782;31;32760;-85
2021/08/28 02:41:11;;;;;;;2.08;1.50;;;;;;;13.33;64.16;99821.75;4473060;31;34321;-85
2021/08/28 02:43:40;;;;;;;1.70;1.48;;;;;;;13.10;65.53;99816.81;4496174;31;33530;-84
2021/08/28 02:46:10;;;;;;;1.70;1.20;;;;;;;13.37;64.35;99823.31;4489147;31;33531;-84
2021/08/28 02:48:38;;;;;;;2.22;1.30;;;;;;;13.42;63.86;99823.91;4478912;31;34145;-84
2021/08/28 02:51:10;;;;;;;1.70;1.23;;;;;;;13.34;63.90;99820.84;4491196;31;33827;-84
2021/08/28 02:53:40;;;;;;;4.00;1.80;;;;;;;13.31;64.01;99823.66;4490356;31;35559;-84
2021/08/28 02:56:09;;;;;;;3.78;1.40;;;;;;;13.38;63.72;99818.87;4493470;31;33552;-85
2021/08/28 02:58:37;;;;;;;1.60;1.45;;;;;;;13.05;65.01;99820.59;4493539;31;33334;-85
2021/08/28 03:01:06;;;;;;;2.55;1.55;;;;;;;13.08;65.07;99812.47;4478032;31;33890;-86
2021/08/28 03:03:35;;;;;;;1.98;1.65;;;;;;;13.34;64.12;99807.59;4478478;31;33827;-86
2021/08/28 03:06:04;;;;;;;2.05;1.40;;;;;;;13.32;64.02;99806.81;4490267;31;34296;-86
2021/08/28 03:08:34;;;;;;;1.83;1.27;;;;;;;13.25;64.04;99808.09;4489126;31;33327;-86
2021/08/28 03:11:02;;;;;;;2.12;1.42;;;;;;;13.27;64.13;99808.84;4480161;31;32965;-86
2021/08/28 03:13:31;;;;;;;1.73;1.40;;;;;;;13.18;64.45;99811.97;4476852;31;35254;-86
2021/08/28 03:15:59;;;;;;;2.45;1.60;;;;;;;13.23;64.56;99815.25;4492028;31;34338;-86
2021/08/28 03:18:28;;;;;;;4.15;1.75;;;;;;;13.27;64.78;99811.50;4466310;31;33346;-86
2021/08/28 03:20:58;;;;;;;1.50;0.93;;;;;;;13.28;64.53;99807.91;4477631;31;33956;-86
2021/08/28 03:23:28;;;;;;;1.50;1.40;;;;;;;13.27;64.34;99814.16;4461910;32;33362;-86
2021/08/28 03:25:57;;;;;;;2.62;1.58;;;;;;;13.13;64.77;99809.56;4453242;31;33120;-86
2021/08/28 03:28:27;;;;;;;2.20;1.48;;;;;;;13.07;65.32;99815.19;4490326;31;33434;-86
2021/08/28 03:30:56;;;;;;;3.85;1.98;;;;;;;13.11;65.22;99806.16;4475421;31;34691;-86
2021/08/28 03:33:24;;;;;;;2.70;1.35;;;;;;;13.12;64.79;99807.00;4464026;32;34807;-86
2021/08/28 03:35:53;;;;;;;3.58;1.10;;;;;;;13.15;64.60;99806.81;4477447;31;34478;-86
2021/08/28 03:38:21;;;;;;;2.28;1.17;;;;;;;13.09;64.95;99813.31;4466746;31;32338;-86
2021/08/28 03:40:48;;;;;;;1.52;1.35;;;;;;;12.96;65.43;99812.25;4470757;31;33908;-85
2021/08/28 03:43:17;;;;;;;1.90;1.40;;;;;;;13.17;64.85;99811.13;4492335;31;34736;-86
2021/08/28 03:45:48;;;;;;;1.50;1.30;;;;;;;13.12;64.90;99812.31;4480066;31;34435;-86
2021/08/28 03:48:17;;;;;;;2.47;1.47;;;;;;;12.96;65.49;99807.84;4480779;31;32860;-86
2021/08/28 03:50:45;;;;;;;2.03;1.55;;;;;;;13.08;65.26;99809.81;4464901;32;33008;-86
2021/08/28 03:53:13;;;;;;;4.93;1.20;;;;;;;13.21;64.59;99809.16;4480835;31;33703;-86
2021/08/28 03:55:41;;;;;;;1.95;1.17;;;;;;;13.11;64.84;99811.47;4490988;31;33481;-86
2021/08/28 03:58:09;;;;;;;1.55;1.33;;;;;;;13.00;65.12;99809.34;4481121;31;35198;-86
2021/08/28 04:00:36;;;;;;;1.60;1.50;;;;;;;12.88;65.18;99817.97;4466030;31;33278;-86
2021/08/28 04:03:05;;;;;;;3.42;2.00;;;;;;;12.93;65.44;99818.59;4478385;31;34174;-86
2021/08/28 04:05:35;;;;;;;2.65;1.80;;;;;;;13.01;65.45;99821.69;4479075;31;33920;-86
2021/08/28 04:08:10;;;;;;;2.40;1.50;;;;;;;13.18;64.92;99822.56;4492761;31;33446;-84
2021/08/28 04:10:40;;;;;;;4.70;1.67;;;;;;;13.19;64.98;99821.62;4480983;31;34014;-85
2021/08/28 04:13:08;;;;;;;2.78;1.70;;;;;;;13.11;65.36;99821.22;4476873;31;33523;-86
2021/08/28 04:15:36;;;;;;;2.20;1.67;;;;;;;13.14;65.24;99826.31;4479446;31;33566;-87
2021/08/28 04:18:08;;;;;;;;;;;;;;;13.21;65.07;99822.41;4469016;32;32486;-87
2021/08/28 04:20:36;;;;;;;1.65;1.23;;;;;;;13.38;64.87;99817.06;4493646;31;33852;-86
2021/08/28 04:23:07;;;;;;;2.58;1.87;;;;;;;13.29;65.38;99810.50;4480055;31;35361;-86
2021/08/28 04:25:37;;;;;;;3.87;1.85;;;;;;;13.28;65.78;99834.41;4468868;31;33904;-86
2021/08/28 04:28:07;;;;;;;3.03;2.10;;;;;;;13.17;66.55;99836.78;4480795;31;33513;-86
2021/08/28 04:30:34;;;;;;;1.95;1.50;;;;;;;13.31;66.08;99828.97;4476701;31;34384;-86
2021/08/28 04:33:04;;;;;;;2.75;1.80;;;;;;;13.39;65.91;99837.38;4480501;31;32583;-86
2021/08/28 04:35:35;;;;;;;3.75;1.55;;;;;;;13.38;66.36;99835.63;4491685;31;33832;-86
2021/08/28 04:38:03;;;;;;;3.40;1.90;;;;;;;13.47;66.37;99829.81;4493878;31;33346;-87
2021/08/28 04:40:33;;;;;;;6.45;1.70;;;;;;;13.51;66.40;99825.22;4477678;31;33498;-87
2021/08/28 04:43:02;;;;;;;3.05;2.17;;;;;;;13.57;66.74;99825.72;4481125;31;33622;-87
2021/08/28 04:45:32;;;;;;;4.03;1.48;;;;;;;13.52;66.99;99818.94;4481347;31;32873;-86
2021/08/28 04:48:02;;;;;;;2.92;1.90;;;;;;;13.51;67.32;99826.06;4478699;31;36747;-85
2021/08/28 04:50:29;;;;;;;2.50;1.73;;;;;;;13.47;68.02;99832.47;4458765;31;34185;-85
2021/08/28 04:52:57;;;;;;;7.55;1.48;;;;;;;13.75;67.33;99833.59;4489630;31;33719;-85
2021/08/28 04:55:25;;;;;;;2.00;1.50;;;;;;;13.76;67.42;99835.31;4481705;31;32665;-85
2021/08/28 04:58:13;;;;;;;2.00;1.73;;;;;;;13.77;67.68;99842.34;4468210;31;32345;-86
2021/08/28 05:00:42;;;;;;;2.42;1.80;;;;;;;13.90;67.69;99843.34;4493794;31;33337;-86
2021/08/28 05:03:12;;;;;;;2.80;2.08;;;;;;;13.99;67.42;99840.16;4478180;31;33207;-86
2021/08/28 05:05:40;;;;;;;2.28;1.60;;;;;;;14.09;67.11;99843.16;4475868;31;32815;-86
2021/08/28 05:08:08;;;;;;;5.87;2.20;;;;;;;14.20;66.83;99846.06;4494091;31;32954;-86
2021/08/28 05:10:36;;;;;;;4.60;1.87;;;;;;;14.31;66.79;99848.09;4481460;31;33908;-85
2021/08/28 05:13:04;;;;;;;2.53;1.83;;;;;;;14.33;67.00;99846.19;4479069;31;33613;-85
2021/08/28 05:15:32;;;;;;;1.98;1.70;;;;;;;14.45;66.87;99860.56;4477703;32;34457;-85
2021/08/28 05:18:00;;;;;;;3.25;2.22;;;;;;;14.47;67.10;99864.81;4494088;31;33982;-85
2021/08/28 05:20:28;;;;;;;1.92;1.60;;;;;;;14.50;67.41;99864.69;4493966;31;34604;-84
2021/08/28 05:23:01;;;;;;;2.97;1.48;;;;;;;14.59;67.43;99860.62;4489163;31;32939;-83
2021/08/28 05:25:29;;;;;;;3.55;2.08;;;;;;;14.67;66.91;99868.12;4490643;31;34463;-85
2021/08/28 05:27:58;;;;;;;2.15;1.37;;;;;;;14.54;67.58;99871.53;4465410;31;32929;-84
2021/08/28 05:30:25;;;;;;;1.65;1.20;;;;;;;14.78;67.04;99869.22;4476708;31;34544;-84
2021/08/28 05:32:54;;;;;;;1.33;1.20;;;;;;;14.86;67.16;99868.78;4490817;31;34002;-84
2021/08/28 05:35:22;;;;;;;2.12;1.40;;;;;;;15.09;66.48;99859.38;4492588;31;33781;-84
2021/08/28 05:37:51;;;;;;;1.62;1.40;;;;;;;14.99;66.84;99864.41;4475142;31;33069;-84
2021/08/28 05:40:20;;;;;;;3.22;1.50;;;;;;;15.17;66.56;99864.22;4468768;31;33522;-85
2021/08/28 05:42:48;;;;;;;2.33;1.52;;;;;;;15.37;66.38;99858.53;4476553;31;35186;-85
2021/08/28 05:45:16;;;;;;;3.03;1.48;;;;;;;15.64;65.50;99860.44;4478862;31;33523;-85
2021/08/28 05:47:44;;;;;;;;;;;;;;;15.83;65.04;99858.31;4484361;31;32678;-84
2021/08/28 05:50:14;;;;;;;;;;;;;;;15.86;65.42;99847.47;4477178;32;34158;-84
2021/08/28 05:52:43;;;;;;;3.17;1.83;;;;;;;15.99;65.49;99851.03;4465137;31;34935;-85
2021/08/28 05:55:14;;;;;;;4.50;2.15;;;;;;;16.12;65.55;99841.28;4481447;32;32493;-85
2021/08/28 05:57:42;;;;;;;3.95;1.65;;;;;;;16.37;64.92;99844.97;4467144;31;33897;-85
2021/08/28 06:00:11;;;;;;;5.00;2.28;;;;;;;16.28;65.48;99843.78;4480174;31;33634;-85
2021/08/28 06:02:42;;;;;;;2.62;2.08;;;;;;;16.16;66.24;99843.75;4480738;31;35096;-85
2021/08/28 06:05:12;;;;;;;3.55;2.50;;;;;;;16.41;65.67;99843.81;4489575;31;33418;-85
2021/08/28 06:07:42;;;;;;;3.05;1.60;;;;;;;16.75;63.96;99841.56;4459211;31;33605;-85
2021/08/28 06:10:14;;;;;;;1.95;1.48;;;;;;;16.74;64.07;99845.19;4478488;31;34964;-85
2021/08/28 06:12:42;;;;;;;2.55;1.40;;;;;;;16.67;64.22;99843.88;4489263;31;33665;-85
2021/08/28 06:15:13;;;;;;;1.98;1.62;;;;;;;16.54;63.82;99850.03;4479678;31;33561;-85
2021/08/28 06:17:42;;;;;;;4.70;1.58;;;;;;;16.96;63.37;99845.44;4491845;31;33049;-86
2021/08/28 06:20:10;;;;;;;1.87;1.37;;;;;;;16.79;61.36;99841.25;4489291;31;33617;-86
2021/08/28 06:22:38;;;;;;;1.35;1.25;;;;;;;17.30;60.03;99837.72;4484832;31;33529;-87
2021/08/28 06:25:06;;;;;;;4.12;1.58;;;;;;;17.39;60.04;99843.25;4490516;31;34528;-86
2021/08/28 06:27:34;;;;;;;3.80;1.45;;;;;;;17.47;60.32;99842.72;4488538;31;33337;-86
2021/08/28 06:30:03;;;;;;;1.83;1.10;;;;;;;17.56;59.88;99844.69;4482328;31;33798;-85
2021/08/28 06:32:31;;;;;;;1.92;1.30;;;;;;;17.75;58.78;99838.06;4480537;32;33358;-86
2021/08/28 06:34:58;;;;;;;2.90;1.12;;;;;;;17.96;58.25;99843.69;4466318;31;34291;-86
2021/08/28 06:37:27;;;;;;;1.87;1.35;;;;;;;17.87;58.75;99842.53;4496481;31;33044;-86
2021/08/28 06:40:00;;;;;;;1.73;0.90;;;;;;;18.13;56.32;99833.41;4484224;31;32461;-86
2021/08/28 06:42:29;;;;;;;1.42;1.33;;;;;;;18.15;57.99;99828.84;4465263;32;33639;-86
2021/08/28 06:45:04;;;;;;;2.67;1.05;;;;;;;18.25;57.48;99838.84;4476891;31;33935;-86
2021/08/28 06:47:37;;;;;;;1.23;1.00;;;;;;;18.35;58.07;99842.53;4495709;31;32649;-85
2021/08/28 06:50:08;;;;;;;2.45;1.42;;;;;;;18.30;57.87;99836.66;4481006;31;32902;-85
2021/08/28 06:52:45;;;;;;;1.60;1.48;;;;;;;18.48;57.18;99837.97;4494394;31;33062;-84
2021/08/28 06:55:25;;;;;;;1.83;0.90;;;;;;;18.52;57.88;99839.44;4477862;31;34204;-85
2021/08/28 06:57:57;;;;;;;0.85;0.82;;;;;;;18.50;56.30;99833.34;4492877;31;33334;-85
2021/08/28 07:00:25;;;;;;;1.37;0.90;;;;;;;18.54;56.38;99832.13;4478211;31;33499;-82
2021/08/28 07:02:59;;;;;;;1.20;1.10;;;;;;;18.63;56.76;99833.25;4478591;31;33047;-83
2021/08/28 07:05:27;;;;;;;1.95;1.02;;;;;;;18.56;56.00;99827.53;4476607;31;33620;-82
2021/08/28 07:07:55;;;;;;;1.42;1.05;;;;;;;18.67;55.92;99827.56;4490227;31;33439;-84
2021/08/28 07:10:24;;;;;;;1.67;0.85;;;;;;;18.59;55.86;99831.78;4478884;31;33591;-84
2021/08/28 07:12:53;;;;;;;2.03;1.10;;;;;;;18.50;55.56;99830.66;4475395;32;34382;-84
2021/08/28 07:15:20;;;;;;;1.23;1.10;;;;;;;18.58;55.70;99828.25;4490630;31;33637;-84
2021/08/28 07:17:48;;;;;;;1.42;1.05;;;;;;;18.84;54.99;99833.44;4476239;31;33068;-84
2021/08/28 07:20:17;;;;;;;1.90;0.80;;;;;;;18.72;55.12;99831.75;4477978;31;34758;-84
2021/08/28 07:22:45;;;;;;;1.83;1.10;;;;;;;19.01;54.55;99824.97;4489831;31;33292;-85
2021/08/28 07:25:14;;;;;;;1.15;1.00;;;;;;;19.40;54.79;99820.97;4496360;31;33566;-86
2021/08/28 07:27:42;;;;;;;1.92;1.15;;;;;;;19.08;55.31;99826.19;4497012;31;33383;-83
2021/08/28 07:30:13;;;;;;;1.23;0.93;;;;;;;19.40;54.97;99812.09;4480869;31;33622;-84
2021/08/28 07:32:40;;;;;;;1.17;0.93;;;;;;;19.42;54.29;99820.88;4486841;31;33106;-84
2021/08/28 07:35:09;;;;;;;2.95;1.00;;;;;;;19.53;53.37;99820.00;4495101;31;34982;-84
2021/08/28 07:37:36;;;;;;;1.23;0.77;;;;;;;19.53;54.60;99815.47;4478634;31;32433;-83
2021/08/28 07:40:05;;;;;;;1.33;0.90;;;;;;;19.79;53.98;99820.56;4469734;31;32868;-84
2021/08/28 07:42:57;;;;;;;1.05;1.00;;;;;;;19.99;53.15;99819.81;4489027;31;34565;-84
2021/08/28 07:45:26;;;;;;;1.35;1.15;;;;;;;20.19;52.92;99813.62;4498529;31;33556;-84
2021/08/28 07:47:56;;;;;;;5.32;1.10;;;;;;;20.12;51.93;99817.78;4465292;31;33900;-84
2021/08/28 07:50:23;;;;;;;2.03;1.00;;;;;;;20.35;50.59;99823.06;4477965;31;33932;-84
2021/08/28 07:52:51;;;;;;;4.40;0.98;;;;;;;20.34;51.00;99822.22;4458712;31;33453;-84
2021/08/28 07:55:19;;;;;;;3.67;1.10;;;;;;;20.15;53.09;99814.03;4475556;31;32668;-84
2021/08/28 07:57:47;;;;;;;2.12;0.85;;;;;;;20.34;52.91;99824.06;4474998;31;32643;-84
2021/08/28 08:00:16;;;;;;;1.15;0.98;;;;;;;20.43;50.69;99820.59;4476809;31;32975;-84
2021/08/28 08:02:44;;;;;;;1.20;0.70;;;;;;;20.25;50.47;99812.28;4474204;31;33214;-84
2021/08/28 08:05:14;;;;;;;1.35;0.80;;;;;;;20.57;48.89;99812.28;4462443;32;32737;-84
2021/08/28 08:07:44;;;;;;;0.85;0.77;;;;;;;20.48;49.50;99813.06;4493383;31;32723;-84
2021/08/28 08:10:24;;;;;;;1.00;0.68;;;;;;;20.75;50.27;99809.84;4483362;31;33770;-85
2021/08/28 08:13:12;;;;;;;1.60;0.75;;;;;;;20.77;50.66;99815.09;4468487;31;34279;-84
2021/08/28 08:15:42;;;;;;;2.97;1.08;;;;;;;20.64;49.46;99808.06;4490427;31;33831;-84
2021/08/28 08:18:11;;;;;;;2.40;1.10;;;;;;;20.67;49.47;99810.50;4488120;31;33033;-85
2021/08/28 08:20:41;;;;;;;0.90;0.70;;;;;;;21.05;48.87;99800.12;4477738;31;33315;-85
2021/08/28 08:23:12;;;;;;;1.60;0.70;;;;;;;20.96;48.66;99807.12;4490521;31;33221;-84
2021/08/28 08:25:41;;;;;;;0.52;0.50;;;;;;;20.84;48.69;99802.81;4477309;31;34515;-84
2021/08/28 08:28:09;;;;;;;2.08;0.82;;;;;;;20.77;48.03;99793.63;4491342;31;34149;-85
2021/08/28 08:30:42;;;;;;;2.15;0.62;;;;;;;21.18;47.91;99790.03;4476487;31;33888;-84
2021/08/28 08:33:10;;;;;;;3.60;0.88;;;;;;;20.62;46.93;99804.69;4462495;32;33579;-84
2021/08/28 08:35:38;;;;;;;1.45;0.73;;;;;;;21.09;47.11;99799.72;4480243;31;34674;-84
2021/08/28 08:38:05;;;;;;;1.00;0.65;;;;;;;21.29;46.88;99800.66;4465457;31;32324;-86
2021/08/28 08:40:33;;;;;;;1.05;0.80;;;;;;;21.51;45.95;99802.34;4479516;31;33513;-85
2021/08/28 08:43:03;;;;;;;0.68;0.65;;;;;;;21.43;46.99;99794.09;4475972;31;33213;-87
2021/08/28 08:45:31;;;;;;;1.37;0.62;;;;;;;21.61;45.96;99796.97;4468229;31;33930;-86
2021/08/28 08:48:00;;;;;;;1.60;0.82;;;;;;;21.61;46.16;99800.53;4469572;32;32375;-85
2021/08/28 08:50:30;;;;;;;2.67;0.80;;;;;;;21.37;45.99;99798.19;4474835;31;33911;-85
2021/08/28 08:53:04;;;;;;;1.40;0.98;;;;;;;21.44;46.14;99795.78;4476758;31;33637;-86
2021/08/28 08:55:32;;;;;;;1.12;0.70;;;;;;;21.81;46.60;99793.34;4465685;31;33768;-85
2021/08/28 08:58:14;;;;;;;0.60;0.60;;;;;;;22.04;44.64;99793.94;4477468;31;33081;-86
2021/08/28 09:00:43;;;;;;;0.68;0.60;;;;;;;21.71;46.10;99793.31;4495674;31;34509;-86
2021/08/28 09:03:14;;;;;;;3.00;0.77;;;;;;;21.60;46.58;99790.75;4493724;31;35520;-85
2021/08/28 09:05:43;;;;;;;1.20;0.77;;;;;;;21.79;45.09;99794.44;4483839;31;32243;-85
2021/08/28 09:08:11;;;;;;;0.82;0.70;;;;;;;21.61;46.67;99797.81;4469267;31;34925;-85
2021/08/28 09:10:39;;;;;;;1.95;0.60;;;;;;;21.46;46.19;99792.00;4494160;31;36401;-85
2021/08/28 09:13:26;;;;;;;0.80;0.73;;;;;;;21.90;45.93;99792.50;4494683;31;33737;-86
2021/08/28 09:15:57;;;;;;;0.50;0.50;;;;;;;21.85;45.37;99792.06;4478996;31;34223;-85
2021/08/28 09:18:51;;;;;;;0.98;0.68;;;;;;;21.93;44.94;99791.34;4475045;31;33012;-85
2021/08/28 09:21:21;;;;;;;1.40;0.90;;;;;;;22.21;44.59;99795.09;4463572;32;32793;-85
2021/08/28 09:23:59;;;;;;;2.55;0.60;;;;;;;22.37;45.35;99799.91;4491518;31;33409;-85
2021/08/28 09:26:30;;;;;;;2.58;0.80;;;;;;;22.39;44.01;99803.31;4479873;31;33745;-85
2021/08/28 09:28:58;;;;;;;2.70;0.70;;;;;;;22.15;43.21;99796.50;4482336;31;36057;-85
2021/08/28 09:31:48;;;;;;;2.00;0.73;;;;;;;22.51;44.12;99799.47;4484628;31;34033;-85
2021/08/28 09:34:18;;;;;;;0.93;0.80;;;;;;;22.47;42.06;99800.75;4474156;31;34485;-85
2021/08/28 09:36:54;;;;;;;0.77;0.50;;;;;;;21.99;42.61;99797.03;4493830;31;33789;-86
2021/08/28 09:39:47;;;;;;;1.37;0.50;;;;;;;22.44;43.13;99792.97;4481076;31;33366;-85
2021/08/28 09:42:21;;;;;;;3.03;0.75;;;;;;;22.82;42.54;99783.97;4477046;31;33536;-85
2021/08/28 09:44:50;;;;;;;0.93;0.68;;;;;;;22.81;42.24;99781.44;4487633;31;33695;-85
2021/08/28 09:47:21;;;;;;;1.00;0.50;;;;;;;22.63;41.70;99790.25;4479173;31;33400;-85
2021/08/28 09:49:51;;;;;;;1.35;0.60;;;;;;;23.13;40.41;99787.31;4489447;31;33356;-85
2021/08/28 09:52:24;;;;;;;2.03;0.70;;;;;;;23.16;40.94;99783.47;4479755;31;33983;-85
2021/08/28 09:54:53;;;;;;;;;;;;;;;23.14;41.06;99778.22;4480130;31;35131;-85
2021/08/28 09:57:27;;;;;;;0.82;0.57;;;;;;;23.12;39.80;99782.06;4468417;31;34833;-85
2021/08/28 09:59:59;;;;;;;1.35;0.68;;;;;;;23.64;39.72;99779.69;4478789;31;33057;-85
2021/08/28 10:02:33;;;;;;;;;;;;;;;23.88;40.31;99776.41;4478155;31;34996;-85
2021/08/28 10:05:01;;;;;;;0.60;0.50;;;;;;;23.78;40.00;99776.50;4490537;31;35140;-85
2021/08/28 10:07:31;;;;;;;1.52;0.55;;;;;;;23.84;39.76;99769.66;4479592;31;34277;-85
2021/08/28 10:10:03;;;;;;;0.43;0.43;;;;;;;23.67;39.38;99763.25;4479970;31;32669;-85
2021/08/28 10:12:32;;;;;;;3.95;1.58;;;;;;;23.95;38.15;99761.34;4479620;31;33527;-85
2021/08/28 10:15:03;;;;;;;1.40;0.90;;;;;;;23.85;40.71;99760.56;4479880;31;33996;-85
2021/08/28 10:17:31;;;;;;;2.90;1.00;;;;;;;24.27;38.23;99748.16;4488822;31;34706;-85
2021/08/28 10:20:01;;;;;;;2.42;1.30;;;;;;;24.32;38.41;99752.22;4475972;31;33460;-86
2021/08/28 10:22:31;;;;;;;1.42;0.65;;;;;;;24.57;37.77;99746.03;4481906;31;34489;-85
2021/08/28 10:25:04;;;;;;;1.52;0.60;;;;;;;24.69;37.68;99743.94;4479256;31;34396;-85
2021/08/28 10:27:31;;;;;;;1.23;0.70;;;;;;;24.69;36.20;99741.25;4480136;31;33130;-85
2021/08/28 10:29:59;;;;;;;1.30;0.80;;;;;;;24.52;37.54;99737.56;4492578;31;34057;-85
2021/08/28 10:32:27;;;;;;;1.52;0.60;;;;;;;24.28;37.87;99736.34;4479425;31;33521;-85
2021/08/28 10:34:55;;;;;;;1.00;0.62;;;;;;;24.43;37.65;99739.34;4488023;31;33642;-86
2021/08/28 10:37:23;;;;;;;2.22;0.43;;;;;;;24.28;38.22;99735.50;4481925;32;34090;-85
2021/08/28 10:39:51;;;;;;;0.65;0.60;;;;;;;24.50;37.83;99739.59;4492926;31;33318;-85
2021/08/28 10:42:20;;;;;;;0.90;0.62;;;;;;;24.36;37.22;99742.81;4479962;31;32291;-85
2021/08/28 10:44:52;;;;;;;1.55;0.73;;;;;;;24.86;37.10;99734.91;4490589;31;33648;-85
2021/08/28 10:47:22;;;;;;;0.65;0.52;;;;;;;24.52;36.12;99737.56;4492517;31;33846;-85
2021/08/28 10:50:02;;;;;;;0.95;0.77;;;;;;;24.15;37.05;99741.28;4480318;31;32273;-85
2021/08/28 10:52:34;;;;;;;3.55;1.25;;;;;;;23.69;37.40;99740.53;4478484;31;33893;-85
2021/08/28 10:55:06;;;;;;;5.05;0.73;;;;;;;24.18;37.18;99732.91;4491721;31;33627;-86
2021/08/28 10:57:34;;;;;;;1.37;0.50;;;;;;;24.52;35.91;99737.56;4467705;32;33803;-85
2021/08/28 11:00:05;;;;;;;2.25;0.70;;;;;;;24.22;36.72;99741.53;4490053;31;33302;-86
2021/08/28 11:02:56;;;;;;;0.93;0.60;;;;;;;24.39;37.37;99737.13;4493300;31;33655;-85
2021/08/28 11:05:27;;;;;;;;;;;;;;;24.37;38.09;99725.66;4477444;31;33262;-85
2021/08/28 11:08:17;;;;;;;1.58;0.55;;;;;;;24.51;36.51;99717.00;4466277;31;35519;-85
2021/08/28 11:11:26;;;;;;;0.93;0.73;;;;;;;24.44;36.35;99730.25;4481129;31;32885;-85
2021/08/28 11:14:01;;;;;;;3.47;0.55;;;;;;;24.58;36.44;99714.50;4476941;31;33013;-85
2021/08/28 11:16:41;;;;;;;1.98;0.70;;;;;;;24.97;35.36;99714.88;4494094;31;33717;-85
2021/08/28 11:19:13;;;;;;;2.90;0.70;;;;;;;25.17;33.99;99702.84;4492398;31;33512;-84
2021/08/28 11:21:45;;;;;;;0.73;0.50;;;;;;;25.04;39.32;99705.13;4475521;31;32152;-85
2021/08/28 11:24:19;;;;;;;1.35;0.60;;;;;;;25.52;35.11;99695.50;4490568;31;33630;-85
2021/08/28 11:26:49;;;;;;;0.60;0.50;;;;;;;25.61;36.09;99697.22;4488684;31;32664;-85
2021/08/28 11:29:33;;;;;;;0.90;0.57;;;;;;;25.97;34.74;99707.78;4467462;31;34317;-85
2021/08/28 11:32:14;;;;;;;0.98;0.50;;;;;;;25.94;32.70;99708.12;4490083;31;33638;-85
2021/08/28 11:34:46;;;;;;;0.95;0.70;;;;;;;25.83;33.65;99705.72;4476513;31;33553;-84
2021/08/28 11:37:26;;;;;;;;;;;;;;;25.58;33.88;99700.25;4490137;31;33580;-85
2021/08/28 11:40:03;;;;;;;0.68;0.43;;;;;;;25.41;35.98;99709.34;4489149;31;33795;-85
2021/08/28 11:42:32;;;;;;;1.30;0.68;;;;;;;25.46;36.82;99701.59;4464321;31;32595;-85
2021/08/28 11:45:01;;;;;;;1.04;0.42;;;;;;;25.65;35.73;99695.87;4492673;31;34390;-85
2021/08/28 11:47:29;;;;;;;4.18;1.42;;;;;;;25.96;34.40;99695.25;4478482;31;34466;-85
2021/08/28 11:49:59;;;;;;;1.60;0.88;;;;;;;26.03;33.88;99701.69;4488918;31;33853;-85
2021/08/28 11:52:33;;;;;;;2.25;0.52;;;;;;;26.17;32.06;99706.44;4464237;31;33604;-85